createdAt,value
2023-04-05T00:00:40.181Z,2.965
2023-04-05T00:01:46.061Z,2.920
2023-04-05T00:02:36.798Z,2.931
2023-04-05T00:03:37.394Z,2.931
2023-04-05T00:04:37.301Z,2.905
2023-04-05T00:05:37.197Z,2.910
2023-04-05T00:06:37.752Z,2.890
2023-04-05T00:07:37.514Z,2.911
2023-04-05T00:08:37.158Z,2.920
2023-04-05T00:09:37.766Z,2.927
2023-04-05T00:10:38.084Z,2.891
2023-04-05T00:11:37.558Z,2.890
2023-04-05T00:12:37.138Z,2.812
2023-04-05T00:13:37.037Z,2.772
2023-04-05T00:14:36.712Z,2.734
2023-04-05T00:15:37.758Z,2.756
2023-04-05T00:16:37.936Z,2.775
2023-04-05T00:17:37.428Z,2.793
2023-04-05T00:18:37.690Z,2.813
2023-04-05T00:19:37.309Z,2.826
2023-04-05T00:20:37.595Z,2.825
2023-04-05T00:21:37.972Z,2.801
2023-04-05T00:22:36.909Z,2.781
2023-04-05T00:23:37.300Z,2.721
2023-04-05T00:24:37.144Z,2.641
2023-04-05T00:25:37.398Z,2.606
2023-04-05T00:26:37.123Z,2.573
2023-04-05T00:27:37.321Z,2.588
2023-04-05T00:28:37.379Z,2.608
2023-04-05T00:29:37.066Z,2.636
2023-04-05T00:30:37.261Z,2.643
2023-04-05T00:31:37.066Z,2.615
2023-04-05T00:32:37.356Z,2.505
2023-04-05T00:33:37.640Z,2.456
2023-04-05T00:34:37.622Z,2.441
2023-04-05T00:35:37.584Z,2.430
2023-04-05T00:36:37.359Z,2.444
2023-04-05T00:37:37.465Z,2.491
2023-04-05T00:38:37.356Z,2.523
2023-04-05T00:39:37.843Z,2.546
2023-04-05T00:40:38.232Z,2.531
2023-04-05T00:41:37.330Z,2.506
2023-04-05T00:42:37.575Z,2.516
2023-04-05T00:43:37.006Z,2.518
2023-04-05T00:44:36.788Z,2.509
2023-04-05T00:45:37.773Z,2.509
2023-04-05T00:46:37.833Z,2.474
2023-04-05T00:47:38.008Z,2.478
2023-04-05T00:48:37.024Z,2.443
2023-04-05T00:49:36.746Z,2.394
2023-04-05T00:50:37.843Z,2.371
2023-04-05T00:51:37.476Z,2.414
2023-04-05T00:52:37.516Z,2.440
2023-04-05T00:53:37.041Z,2.446
2023-04-05T00:54:37.047Z,2.444
2023-04-05T00:55:36.870Z,2.433
2023-04-05T00:56:37.784Z,2.398
2023-04-05T00:57:37.581Z,2.410
2023-04-05T00:58:37.392Z,2.398
2023-04-05T00:59:37.154Z,2.361
2023-04-05T01:00:38.045Z,2.341
2023-04-05T01:01:37.978Z,2.305
2023-04-05T01:02:37.160Z,2.306
2023-04-05T01:03:37.453Z,2.296
2023-04-05T01:04:37.040Z,2.318
2023-04-05T01:05:37.200Z,2.355
2023-04-05T01:06:37.104Z,2.369
2023-04-05T01:07:37.457Z,2.368
2023-04-05T01:08:37.066Z,2.396
2023-04-05T01:09:37.185Z,2.403
2023-04-05T01:10:37.303Z,2.416
2023-04-05T01:11:38.448Z,2.426
2023-04-05T01:12:37.425Z,2.426
2023-04-05T01:13:37.395Z,2.414
2023-04-05T01:14:37.512Z,2.400
2023-04-05T01:15:37.939Z,2.386
2023-04-05T01:16:37.413Z,2.398
2023-04-05T01:17:37.353Z,2.386
2023-04-05T01:18:37.221Z,2.393
2023-04-05T01:19:37.098Z,2.393
2023-04-05T01:20:37.577Z,2.381
2023-04-05T01:21:37.732Z,2.398
2023-04-05T01:22:37.401Z,2.411
2023-04-05T01:23:36.704Z,2.408
2023-04-05T01:24:37.379Z,2.388
2023-04-05T01:25:37.671Z,2.386
2023-04-05T01:26:37.660Z,2.390
2023-04-05T01:27:37.514Z,2.394
2023-04-05T01:28:37.296Z,2.408
2023-04-05T01:29:37.478Z,2.414
2023-04-05T01:30:38.359Z,2.412
2023-04-05T01:31:37.433Z,2.414
2023-04-05T01:32:37.012Z,2.414
2023-04-05T01:33:37.099Z,2.420
2023-04-05T01:34:36.754Z,2.437
2023-04-05T01:35:37.526Z,2.427
2023-04-05T01:36:37.573Z,2.422
2023-04-05T01:37:37.404Z,2.426
2023-04-05T01:38:36.755Z,2.424
2023-04-05T01:39:37.539Z,2.421
2023-04-05T01:40:37.547Z,2.437
2023-04-05T01:41:37.319Z,2.440
2023-04-05T01:42:37.352Z,2.441
2023-04-05T01:43:37.020Z,2.446
2023-04-05T01:44:36.964Z,2.445
2023-04-05T01:45:38.007Z,2.440
2023-04-05T01:46:37.376Z,2.445
2023-04-05T01:47:37.385Z,2.431
2023-04-05T01:48:37.198Z,2.425
2023-04-05T01:49:37.277Z,2.424
2023-04-05T01:50:37.595Z,2.416
2023-04-05T01:51:37.401Z,2.406
2023-04-05T01:52:37.146Z,2.401
2023-04-05T01:53:37.050Z,2.391
2023-04-05T01:54:37.219Z,2.380
2023-04-05T01:55:37.036Z,2.369
2023-04-05T01:56:37.060Z,2.349
2023-04-05T01:57:36.580Z,2.356
2023-04-05T01:58:37.496Z,2.359
2023-04-05T01:59:37.460Z,2.369
2023-04-05T02:00:38.608Z,2.355
2023-04-05T02:01:37.196Z,2.371
2023-04-05T02:02:37.418Z,2.384
2023-04-05T02:03:37.084Z,2.394
2023-04-05T02:04:37.369Z,2.418
2023-04-05T02:05:37.725Z,2.424
2023-04-05T02:06:38.162Z,2.436
2023-04-05T02:07:37.213Z,2.461
2023-04-05T02:08:37.575Z,2.468
2023-04-05T02:09:37.399Z,2.446
2023-04-05T02:10:37.369Z,2.461
2023-04-05T02:11:37.201Z,2.464
2023-04-05T02:12:37.302Z,2.458
2023-04-05T02:13:37.104Z,2.464
2023-04-05T02:14:37.463Z,2.466
2023-04-05T02:15:37.893Z,2.476
2023-04-05T02:16:37.824Z,2.476
2023-04-05T02:17:37.399Z,2.454
2023-04-05T02:18:42.196Z,2.443
2023-04-05T02:19:37.175Z,2.444
2023-04-05T02:20:37.928Z,2.436
2023-04-05T02:21:37.063Z,2.438
2023-04-05T02:22:37.588Z,2.446
2023-04-05T02:23:37.131Z,2.438
2023-04-05T02:24:36.345Z,2.440
2023-04-05T02:25:37.055Z,2.448
2023-04-05T02:26:37.202Z,2.456
2023-04-05T02:27:37.487Z,2.446
2023-04-05T02:28:37.411Z,2.450
2023-04-05T02:29:37.269Z,2.460
2023-04-05T02:30:37.416Z,2.478
2023-04-05T02:31:37.658Z,2.474
2023-04-05T02:32:37.982Z,2.463
2023-04-05T02:33:37.000Z,2.483
2023-04-05T02:34:36.630Z,2.486
2023-04-05T02:35:37.233Z,2.493
2023-04-05T02:36:36.781Z,2.488
2023-04-05T02:37:37.201Z,2.473
2023-04-05T02:38:36.480Z,2.463
2023-04-05T02:39:37.431Z,2.440
2023-04-05T02:40:37.676Z,2.441
2023-04-05T02:41:37.569Z,2.450
2023-04-05T02:42:37.268Z,2.453
2023-04-05T02:43:37.012Z,2.448
2023-04-05T02:44:37.415Z,2.441
2023-04-05T02:45:38.060Z,2.448
2023-04-05T02:46:37.417Z,2.441
2023-04-05T02:47:37.629Z,2.428
2023-04-05T02:48:37.408Z,2.416
2023-04-05T02:49:36.855Z,2.418
2023-04-05T02:50:37.631Z,2.418
2023-04-05T02:51:37.358Z,2.406
2023-04-05T02:52:37.352Z,2.424
2023-04-05T02:53:37.176Z,2.438
2023-04-05T02:54:37.335Z,2.450
2023-04-05T02:55:37.578Z,2.460
2023-04-05T02:56:37.400Z,2.448
2023-04-05T02:57:37.748Z,2.450
2023-04-05T02:58:37.683Z,2.440
2023-04-05T02:59:37.062Z,2.430
2023-04-05T03:00:39.357Z,2.421
2023-04-05T03:01:37.564Z,2.400
2023-04-05T03:02:37.830Z,2.392
2023-04-05T03:03:37.875Z,2.404
2023-04-05T03:04:37.165Z,2.391
2023-04-05T03:05:37.440Z,2.410
2023-04-05T03:06:37.380Z,2.401
2023-04-05T03:07:37.429Z,2.410
2023-04-05T03:08:37.129Z,2.421
2023-04-05T03:09:37.861Z,2.421
2023-04-05T03:10:38.134Z,2.432
2023-04-05T03:11:37.401Z,2.437
2023-04-05T03:12:37.734Z,2.440
2023-04-05T03:13:37.617Z,2.434
2023-04-05T03:14:38.062Z,2.447
2023-04-05T03:15:37.216Z,2.447
2023-04-05T03:16:39.877Z,2.428
2023-04-05T03:17:37.499Z,2.424
2023-04-05T03:18:37.504Z,2.417
2023-04-05T03:19:37.004Z,2.405
2023-04-05T03:20:37.647Z,2.412
2023-04-05T03:21:37.399Z,2.405
2023-04-05T03:22:37.558Z,2.401
2023-04-05T03:23:37.731Z,2.388
2023-04-05T03:24:38.064Z,2.375
2023-04-05T03:25:38.028Z,2.345
2023-04-05T03:26:37.270Z,2.346
2023-04-05T03:27:37.016Z,2.366
2023-04-05T03:28:37.102Z,2.373
2023-04-05T03:29:37.274Z,2.363
2023-04-05T03:30:37.485Z,2.341
2023-04-05T03:31:37.358Z,2.331
2023-04-05T03:32:37.530Z,2.325
2023-04-05T03:33:37.438Z,2.306
2023-04-05T03:34:37.029Z,2.298
2023-04-05T03:35:36.858Z,2.298
2023-04-05T03:36:37.621Z,2.313
2023-04-05T03:37:37.140Z,2.321
2023-04-05T03:38:37.455Z,2.323
2023-04-05T03:39:37.623Z,2.301
2023-04-05T03:40:37.595Z,2.285
2023-04-05T03:41:37.280Z,2.275
2023-04-05T03:42:37.537Z,2.273
2023-04-05T03:43:37.472Z,2.271
2023-04-05T03:44:37.643Z,2.266
2023-04-05T03:45:39.589Z,2.241
2023-04-05T03:46:37.634Z,2.220
2023-04-05T03:47:37.644Z,2.216
2023-04-05T03:48:37.223Z,2.198
2023-04-05T03:49:36.799Z,2.174
2023-04-05T03:50:37.753Z,2.153
2023-04-05T03:51:37.535Z,2.158
2023-04-05T03:52:38.014Z,2.171
2023-04-05T03:53:37.229Z,2.191
2023-04-05T03:54:37.649Z,2.181
2023-04-05T03:55:37.773Z,2.174
2023-04-05T03:56:37.803Z,2.158
2023-04-05T03:57:37.386Z,2.168
2023-04-05T03:58:37.271Z,2.164
2023-04-05T03:59:37.176Z,2.134
2023-04-05T04:00:38.596Z,2.113
2023-04-05T04:01:37.219Z,2.106
2023-04-05T04:02:37.565Z,2.085
2023-04-05T04:03:37.357Z,2.043
2023-04-05T04:04:37.461Z,2.011
2023-04-05T04:05:37.366Z,1.965
2023-04-05T04:06:37.550Z,1.951
2023-04-05T04:07:37.202Z,1.963
2023-04-05T04:08:37.048Z,1.985
2023-04-05T04:09:36.946Z,1.995
2023-04-05T04:10:38.055Z,1.953
2023-04-05T04:11:37.481Z,1.941
2023-04-05T04:12:38.472Z,1.946
2023-04-05T04:13:38.141Z,1.936
2023-04-05T04:14:37.045Z,1.960
2023-04-05T04:15:37.659Z,1.966
2023-04-05T04:16:38.110Z,1.948
2023-04-05T04:17:37.196Z,1.931
2023-04-05T04:18:37.318Z,1.934
2023-04-05T04:19:37.993Z,1.936
2023-04-05T04:20:37.762Z,1.926
2023-04-05T04:21:37.801Z,1.940
2023-04-05T04:22:37.735Z,1.950
2023-04-05T04:23:37.554Z,1.945
2023-04-05T04:24:37.443Z,1.926
2023-04-05T04:25:37.924Z,1.921
2023-04-05T04:26:36.849Z,1.911
2023-04-05T04:27:37.144Z,1.903
2023-04-05T04:28:37.103Z,1.908
2023-04-05T04:29:37.456Z,1.889
2023-04-05T04:30:37.907Z,1.866
2023-04-05T04:31:37.953Z,1.886
2023-04-05T04:32:37.790Z,1.903
2023-04-05T04:33:37.315Z,1.901
2023-04-05T04:34:38.051Z,1.897
2023-04-05T04:35:37.922Z,1.873
2023-04-05T04:36:37.723Z,1.872
2023-04-05T04:37:37.450Z,1.866
2023-04-05T04:38:37.354Z,1.853
2023-04-05T04:39:38.021Z,1.832
2023-04-05T04:40:37.785Z,1.814
2023-04-05T04:41:38.434Z,1.794
2023-04-05T04:42:37.759Z,1.740
2023-04-05T04:43:37.816Z,1.694
2023-04-05T04:44:37.327Z,1.701
2023-04-05T04:45:37.737Z,1.700
2023-04-05T04:46:37.809Z,1.684
2023-04-05T04:47:38.068Z,1.682
2023-04-05T04:48:37.196Z,1.679
2023-04-05T04:49:37.583Z,1.684
2023-04-05T04:50:37.628Z,1.695
2023-04-05T04:51:37.935Z,1.694
2023-04-05T04:52:38.118Z,1.705
2023-04-05T04:53:38.726Z,1.710
2023-04-05T04:54:38.529Z,1.706
2023-04-05T04:55:37.749Z,1.666
2023-04-05T04:56:38.155Z,1.684
2023-04-05T04:57:38.000Z,1.684
2023-04-05T04:58:37.419Z,1.636
2023-04-05T04:59:51.947Z,1.576
2023-04-05T05:00:39.608Z,1.576
2023-04-05T05:02:09.747Z,1.580
2023-04-05T05:02:42.580Z,1.602
2023-04-05T05:03:37.862Z,1.618
2023-04-05T05:04:37.907Z,1.620
2023-04-05T05:05:38.258Z,1.615
2023-04-05T05:06:37.392Z,1.611
2023-04-05T05:08:10.495Z,1.631
2023-04-05T05:08:42.470Z,1.626
2023-04-05T05:09:37.135Z,1.613
2023-04-05T05:10:38.009Z,1.605
2023-04-05T05:11:37.776Z,1.608
2023-04-05T05:12:38.382Z,1.608
2023-04-05T05:13:37.365Z,1.613
2023-04-05T05:14:37.525Z,1.598
2023-04-05T05:15:38.066Z,1.536
2023-04-05T05:16:37.573Z,1.506
2023-04-05T05:17:37.920Z,1.491
2023-04-05T05:18:37.859Z,1.509
2023-04-05T05:19:38.453Z,1.495
2023-04-05T05:20:38.004Z,1.468
2023-04-05T05:21:37.496Z,1.468
2023-04-05T05:22:37.771Z,1.445
2023-04-05T05:23:37.927Z,1.426
2023-04-05T05:24:38.041Z,1.401
2023-04-05T05:25:38.662Z,1.394
2023-04-05T05:26:38.746Z,1.391
2023-04-05T05:27:38.755Z,1.383
2023-04-05T05:28:38.022Z,1.409
2023-04-05T05:29:37.422Z,1.429
2023-04-05T05:30:38.365Z,1.414
2023-04-05T05:31:37.766Z,1.411
2023-04-05T05:32:39.695Z,1.443
2023-04-05T05:33:37.105Z,1.433
2023-04-05T05:34:37.340Z,1.428
2023-04-05T05:35:37.744Z,1.419
2023-04-05T05:36:38.117Z,1.398
2023-04-05T05:37:37.457Z,1.381
2023-04-05T05:38:37.878Z,1.383
2023-04-05T05:39:37.853Z,1.406
2023-04-05T05:40:37.809Z,1.403
2023-04-05T05:41:37.829Z,1.409
2023-04-05T05:42:38.127Z,1.433
2023-04-05T05:43:37.583Z,1.408
2023-04-05T05:44:37.716Z,1.416
2023-04-05T05:45:38.195Z,1.421
2023-04-05T05:46:37.883Z,1.389
2023-04-05T05:47:38.682Z,1.424
2023-04-05T05:48:37.725Z,1.409
2023-04-05T05:49:37.882Z,1.413
2023-04-05T05:50:38.074Z,1.426
2023-04-05T05:51:37.620Z,1.418
2023-04-05T05:52:37.706Z,1.399
2023-04-05T05:53:37.710Z,1.416
2023-04-05T05:54:38.356Z,1.418
2023-04-05T05:55:37.749Z,1.416
2023-04-05T05:56:38.290Z,1.416
2023-04-05T05:57:37.540Z,1.436
2023-04-05T05:58:37.590Z,1.463
2023-04-05T05:59:37.609Z,1.455
2023-04-05T06:00:39.152Z,1.460
2023-04-05T06:01:38.003Z,1.456
2023-04-05T06:02:37.652Z,1.470
2023-04-05T06:03:38.053Z,1.473
2023-04-05T06:04:37.692Z,1.478
2023-04-05T06:05:38.164Z,1.496
2023-04-05T06:06:38.042Z,1.516
2023-04-05T06:07:37.557Z,1.531
2023-04-05T06:08:37.683Z,1.536
2023-04-05T06:09:38.469Z,1.555
2023-04-05T06:10:37.553Z,1.580
2023-04-05T06:11:49.588Z,1.580
2023-04-05T06:12:37.539Z,1.593
2023-04-05T06:13:38.010Z,1.611
2023-04-05T06:14:37.550Z,1.629
2023-04-05T06:15:37.539Z,1.641
2023-04-05T06:16:37.764Z,1.647
2023-04-05T06:17:38.298Z,1.649
2023-04-05T06:18:37.644Z,1.691
2023-04-05T06:19:37.796Z,1.710
2023-04-05T06:20:37.925Z,1.737
2023-04-05T06:21:38.343Z,1.740
2023-04-05T06:22:37.586Z,1.764
2023-04-05T06:23:37.903Z,1.776
2023-04-05T06:24:37.883Z,1.796
2023-04-05T06:25:39.392Z,1.809
2023-04-05T06:26:38.414Z,1.835
2023-04-05T06:27:38.082Z,1.884
2023-04-05T06:28:37.302Z,1.909
2023-04-05T06:29:37.900Z,1.932
2023-04-05T06:30:38.684Z,1.972
2023-04-05T06:31:38.253Z,2.012
2023-04-05T06:32:37.614Z,2.031
2023-04-05T06:33:37.482Z,2.061
2023-04-05T06:34:42.851Z,2.081
2023-04-05T06:35:38.220Z,2.111
2023-04-05T06:36:41.396Z,2.119
2023-04-05T06:37:37.940Z,2.151
2023-04-05T06:38:38.065Z,2.163
2023-04-05T06:39:37.690Z,2.180
2023-04-05T06:40:46.229Z,2.203
2023-04-05T06:41:38.162Z,2.240
2023-04-05T06:42:37.533Z,2.248
2023-04-05T06:43:37.213Z,2.266
2023-04-05T06:44:37.663Z,2.293
2023-04-05T06:45:37.916Z,2.318
2023-04-05T06:46:38.736Z,2.335
2023-04-05T06:47:39.520Z,2.365
2023-04-05T06:48:37.862Z,2.394
2023-04-05T06:49:37.691Z,2.421
2023-04-05T06:50:38.024Z,2.450
2023-04-05T06:51:37.190Z,2.478
2023-04-05T06:52:37.612Z,2.519
2023-04-05T06:53:37.788Z,2.541
2023-04-05T06:54:37.670Z,2.566
2023-04-05T06:55:37.926Z,2.608
2023-04-05T06:56:37.588Z,2.674
2023-04-05T06:57:37.539Z,2.736
2023-04-05T06:58:51.364Z,2.768
2023-04-05T06:59:37.877Z,2.795
2023-04-05T07:00:39.176Z,2.805
2023-04-05T07:01:37.778Z,2.831
2023-04-05T07:02:37.816Z,2.861
2023-04-05T07:03:37.574Z,2.894
2023-04-05T07:04:37.802Z,2.924
2023-04-05T07:05:38.398Z,2.954
2023-04-05T07:06:37.606Z,2.984
2023-04-05T07:07:37.918Z,3.028
2023-04-05T07:08:37.949Z,3.061
2023-04-05T07:09:39.544Z,3.093
2023-04-05T07:10:38.412Z,3.106
2023-04-05T07:11:37.919Z,3.130
2023-04-05T07:12:38.064Z,3.146
2023-04-05T07:13:37.829Z,3.174
2023-04-05T07:14:46.382Z,3.221
2023-04-05T07:15:38.506Z,3.251
2023-04-05T07:16:38.621Z,3.285
2023-04-05T07:17:37.735Z,3.326
2023-04-05T07:18:37.837Z,3.356
2023-04-05T07:19:38.195Z,3.394
2023-04-05T07:21:10.758Z,3.446
2023-04-05T07:21:41.438Z,3.488
2023-04-05T07:22:37.970Z,3.513
2023-04-05T07:23:38.001Z,3.529
2023-04-05T07:25:10.190Z,3.543
2023-04-05T07:25:41.195Z,3.571
2023-04-05T07:26:37.472Z,3.601
2023-04-05T07:27:38.629Z,3.628
2023-04-05T07:28:38.003Z,3.664
2023-04-05T07:29:37.854Z,3.714
2023-04-05T07:30:38.630Z,3.765
2023-04-05T07:31:38.601Z,3.793
2023-04-05T07:32:37.894Z,3.805
2023-04-05T07:33:38.503Z,3.828
2023-04-05T07:34:38.190Z,3.858
2023-04-05T07:35:37.333Z,3.906
2023-04-05T07:36:38.003Z,3.953
2023-04-05T07:37:37.241Z,4.031
2023-04-05T07:38:37.584Z,4.056
2023-04-05T07:39:37.699Z,4.078
2023-04-05T07:40:57.309Z,4.113
2023-04-05T07:41:37.740Z,4.156
2023-04-05T07:42:57.114Z,4.226
2023-04-05T07:43:37.029Z,4.255
2023-04-05T07:44:56.539Z,4.264
2023-04-05T07:45:37.740Z,4.269
2023-04-05T07:46:57.416Z,4.235
2023-04-05T07:47:37.867Z,4.223
2023-04-05T07:48:59.769Z,4.239
2023-04-05T07:49:37.810Z,4.251
2023-04-05T07:50:37.883Z,4.267
2023-04-05T07:51:37.689Z,4.294
2023-04-05T07:52:59.971Z,4.344
2023-04-05T07:53:36.363Z,4.357
2023-04-05T07:54:37.965Z,4.353
2023-04-05T07:55:38.407Z,4.371
2023-04-05T07:57:38.054Z,4.463
2023-04-05T07:58:37.355Z,4.521
2023-04-05T07:59:38.056Z,4.498
2023-04-05T08:01:38.150Z,4.532
2023-04-05T08:02:38.128Z,4.571
2023-04-05T08:03:37.637Z,4.657
2023-04-05T08:04:38.014Z,4.776
2023-04-05T08:05:37.635Z,4.843
2023-04-05T08:06:37.997Z,4.911
2023-04-05T08:07:37.794Z,4.913
2023-04-05T08:08:37.907Z,4.913
2023-04-05T08:09:37.726Z,4.925
2023-04-05T08:10:37.506Z,4.923
2023-04-05T08:11:37.738Z,4.920
2023-04-05T08:12:39.021Z,4.916
2023-04-05T08:13:37.693Z,4.925
2023-04-05T08:14:37.838Z,4.956
2023-04-05T08:15:39.036Z,4.949
2023-04-05T08:16:37.966Z,4.933
2023-04-05T08:17:38.011Z,4.936
2023-04-05T08:18:37.654Z,4.961
2023-04-05T08:19:38.020Z,4.998
2023-04-05T08:20:37.323Z,5.030
2023-04-05T08:21:37.517Z,5.121
2023-04-05T08:22:37.931Z,5.161
2023-04-05T08:23:38.400Z,5.183
2023-04-05T08:24:37.637Z,5.168
2023-04-05T08:25:37.980Z,5.161
2023-04-05T08:26:37.177Z,5.175
2023-04-05T08:27:37.730Z,5.216
2023-04-05T08:28:38.326Z,5.271
2023-04-05T08:29:37.728Z,5.336
2023-04-05T08:30:38.855Z,5.433
2023-04-05T08:31:37.855Z,5.513
2023-04-05T08:32:37.920Z,5.593
2023-04-05T08:33:37.926Z,5.650
2023-04-05T08:34:38.093Z,5.656
2023-04-05T08:35:37.638Z,5.675
2023-04-05T08:36:38.109Z,5.658
2023-04-05T08:37:37.224Z,5.621
2023-04-05T08:38:37.326Z,5.538
2023-04-05T08:39:38.100Z,5.5
2023-04-05T08:40:37.642Z,5.536
2023-04-05T08:41:37.394Z,5.551
2023-04-05T08:42:37.661Z,5.559
2023-04-05T08:43:37.868Z,5.551
2023-04-05T08:44:37.613Z,5.568
2023-04-05T08:45:37.907Z,5.606
2023-04-05T08:46:37.662Z,5.636
2023-04-05T08:47:37.865Z,5.678
2023-04-05T08:48:40.089Z,5.731
2023-04-05T08:49:37.793Z,5.768
2023-04-05T08:50:37.778Z,5.775
2023-04-05T08:51:43.079Z,5.766
2023-04-05T08:52:37.693Z,5.786
2023-04-05T08:53:38.107Z,5.828
2023-04-05T08:54:37.206Z,5.809
2023-04-05T08:55:37.850Z,5.801
2023-04-05T08:56:37.945Z,5.798
2023-04-05T08:57:38.064Z,5.803
2023-04-05T08:58:37.384Z,5.851
2023-04-05T08:59:37.581Z,5.913
2023-04-05T09:00:38.676Z,5.998
2023-04-05T09:01:38.081Z,5.973
2023-04-05T09:02:37.809Z,5.989
2023-04-05T09:03:38.019Z,6.081
2023-04-05T09:04:37.661Z,6.093
2023-04-05T09:05:37.738Z,6.081
2023-04-05T09:06:37.708Z,6.113
2023-04-05T09:07:45.751Z,6.138
2023-04-05T09:08:38.070Z,6.156
2023-04-05T09:09:37.478Z,6.153
2023-04-05T09:10:38.394Z,6.163
2023-04-05T09:11:37.440Z,6.198
2023-04-05T09:12:37.761Z,6.230
2023-04-05T09:13:38.308Z,6.243
2023-04-05T09:14:37.411Z,6.266
2023-04-05T09:15:37.728Z,6.244
2023-04-05T09:16:38.033Z,6.213
2023-04-05T09:17:37.745Z,6.219
2023-04-05T09:18:43.112Z,6.291
2023-04-05T09:19:37.389Z,6.320
2023-04-05T09:20:37.708Z,6.347
2023-04-05T09:21:37.574Z,6.375
2023-04-05T09:22:38.124Z,6.402
2023-04-05T09:23:37.440Z,6.435
2023-04-05T09:24:38.003Z,6.460
2023-04-05T09:25:37.540Z,6.489
2023-04-05T09:26:38.109Z,6.547
2023-04-05T09:27:37.760Z,6.611
2023-04-05T09:28:37.945Z,6.638
2023-04-05T09:29:37.724Z,6.570
2023-04-05T09:30:38.068Z,6.488
2023-04-05T09:31:37.271Z,6.453
2023-04-05T09:32:37.506Z,6.505
2023-04-05T09:33:37.413Z,6.570
2023-04-05T09:34:37.339Z,6.653
2023-04-05T09:35:37.744Z,6.695
2023-04-05T09:36:38.329Z,6.696
2023-04-05T09:37:37.861Z,6.699
2023-04-05T09:38:38.248Z,6.728
2023-04-05T09:39:37.727Z,6.736
2023-04-05T09:40:38.018Z,6.768
2023-04-05T09:41:37.766Z,6.746
2023-04-05T09:42:38.126Z,6.801
2023-04-05T09:43:37.585Z,6.843
2023-04-05T09:44:40.075Z,6.888
2023-04-05T09:45:46.598Z,6.981
2023-04-05T09:46:38.701Z,7.013
2023-04-05T09:47:38.234Z,6.951
2023-04-05T09:48:37.580Z,6.929
2023-04-05T09:49:38.003Z,6.929
2023-04-05T09:50:37.685Z,6.931
2023-04-05T09:51:38.316Z,6.936
2023-04-05T09:52:38.024Z,6.956
2023-04-05T09:53:37.980Z,6.993
2023-04-05T09:54:37.609Z,7.016
2023-04-05T09:55:37.951Z,6.993
2023-04-05T09:56:38.484Z,7.046
2023-04-05T09:57:38.012Z,7.106
2023-04-05T09:58:37.994Z,7.125
2023-04-05T09:59:37.630Z,7.171
2023-04-05T10:00:39.551Z,7.123
2023-04-05T10:01:56.960Z,7.103
2023-04-05T10:02:37.982Z,7.118
2023-04-05T10:03:37.889Z,7.118
2023-04-05T10:04:38.361Z,7.121
2023-04-05T10:05:56.806Z,7.203
2023-04-05T10:06:38.455Z,7.196
2023-04-05T10:07:38.664Z,7.139
2023-04-05T10:08:37.626Z,7.138
2023-04-05T10:09:38.148Z,7.190
2023-04-05T10:10:37.748Z,7.248
2023-04-05T10:11:38.208Z,7.264
2023-04-05T10:12:37.732Z,7.258
2023-04-05T10:13:37.922Z,7.321
2023-04-05T10:14:38.601Z,7.306
2023-04-05T10:15:37.993Z,7.385
2023-04-05T10:16:38.324Z,7.380
2023-04-05T10:17:37.898Z,7.321
2023-04-05T10:18:38.491Z,7.328
2023-04-05T10:19:37.757Z,7.349
2023-04-05T10:20:38.340Z,7.403
2023-04-05T10:21:37.432Z,7.449
2023-04-05T10:22:38.105Z,7.511
2023-04-05T10:23:37.801Z,7.519
2023-04-05T10:24:38.275Z,7.510
2023-04-05T10:25:37.841Z,7.5
2023-04-05T10:26:37.894Z,7.496
2023-04-05T10:27:38.171Z,7.558
2023-04-05T10:28:37.500Z,7.614
2023-04-05T10:29:37.836Z,7.611
2023-04-05T10:30:38.892Z,7.614
2023-04-05T10:31:52.455Z,7.626
2023-04-05T10:32:38.233Z,7.635
2023-04-05T10:33:39.980Z,7.666
2023-04-05T10:34:38.097Z,7.641
2023-04-05T10:35:37.753Z,7.621
2023-04-05T10:36:38.422Z,7.655
2023-04-05T10:37:38.499Z,7.698
2023-04-05T10:38:37.934Z,7.738
2023-04-05T10:39:38.559Z,7.713
2023-04-05T10:40:38.396Z,7.763
2023-04-05T10:41:37.496Z,7.801
2023-04-05T10:42:38.431Z,7.849
2023-04-05T10:43:37.637Z,7.864
2023-04-05T10:44:41.551Z,7.896
2023-04-05T10:45:38.336Z,7.947
2023-04-05T10:46:38.756Z,7.977
2023-04-05T10:47:38.780Z,8.003
2023-04-05T10:48:38.746Z,8.032
2023-04-05T10:49:38.629Z,7.929
2023-04-05T10:50:38.553Z,7.908
2023-04-05T10:51:37.783Z,7.946
2023-04-05T10:52:38.548Z,8.001
2023-04-05T10:53:39.057Z,8.038
2023-04-05T10:54:37.740Z,8.068
2023-04-05T10:55:38.261Z,8.112
2023-04-05T10:56:38.076Z,8.127
2023-04-05T10:57:37.673Z,8.145
2023-04-05T10:58:37.949Z,8.168
2023-04-05T10:59:38.541Z,8.184
2023-04-05T11:00:39.577Z,8.188
2023-04-05T11:01:38.834Z,8.236
2023-04-05T11:02:38.034Z,8.279
2023-04-05T11:03:37.638Z,8.279
2023-04-05T11:04:40.910Z,8.237
2023-04-05T11:05:38.482Z,8.178
2023-04-05T11:06:37.778Z,8.149
2023-04-05T11:07:38.176Z,8.156
2023-04-05T11:08:37.986Z,8.191
2023-04-05T11:09:37.566Z,8.226
2023-04-05T11:10:38.323Z,8.204
2023-04-05T11:11:37.701Z,8.253
2023-04-05T11:12:38.786Z,8.316
2023-04-05T11:13:38.092Z,8.348
2023-04-05T11:14:37.358Z,8.363
2023-04-05T11:15:37.664Z,8.267
2023-04-05T11:16:38.199Z,8.213
2023-04-05T11:17:38.503Z,8.215
2023-04-05T11:18:42.738Z,8.225
2023-04-05T11:19:38.091Z,8.244
2023-04-05T11:20:37.806Z,8.310
2023-04-05T11:21:38.013Z,8.366
2023-04-05T11:22:43.551Z,8.425
2023-04-05T11:23:38.304Z,8.451
2023-04-05T11:24:43.261Z,8.486
2023-04-05T11:25:37.815Z,8.518
2023-04-05T11:26:38.292Z,8.508
2023-04-05T11:27:38.022Z,8.479
2023-04-05T11:28:45.995Z,8.481
2023-04-05T11:29:37.604Z,8.560
2023-04-05T11:30:38.399Z,8.545
2023-04-05T11:31:37.881Z,8.579
2023-04-05T11:32:45.582Z,8.633
2023-04-05T11:33:38.232Z,8.635
2023-04-05T11:34:39.910Z,8.633
2023-04-05T11:35:38.523Z,8.631
2023-04-05T11:36:38.573Z,8.568
2023-04-05T11:37:37.952Z,8.551
2023-04-05T11:38:52.215Z,8.661
2023-04-05T11:39:37.734Z,8.733
2023-04-05T11:40:38.139Z,8.683
2023-04-05T11:41:37.369Z,8.711
2023-04-05T11:42:37.895Z,8.676
2023-04-05T11:43:37.721Z,8.689
2023-04-05T11:44:38.347Z,8.720
2023-04-05T11:45:37.540Z,8.755
2023-04-05T11:46:39.317Z,8.720
2023-04-05T11:47:38.594Z,8.678
2023-04-05T11:48:37.865Z,8.726
2023-04-05T11:49:37.698Z,8.725
2023-04-05T11:50:38.615Z,8.736
2023-04-05T11:51:39.782Z,8.691
2023-04-05T11:52:52.921Z,8.654
2023-04-05T11:53:38.761Z,8.773
2023-04-05T11:54:38.279Z,8.818
2023-04-05T11:55:37.866Z,8.823
2023-04-05T11:56:57.349Z,8.841
2023-04-05T11:57:38.179Z,8.845
2023-04-05T11:58:38.010Z,8.800
2023-04-05T11:59:37.467Z,8.829
2023-04-05T12:00:39.120Z,8.881
2023-04-05T12:01:38.443Z,8.916
2023-04-05T12:02:39.128Z,8.939
2023-04-05T12:03:37.879Z,8.968
2023-04-05T12:05:00.702Z,9.024
2023-04-05T12:05:37.219Z,9.100
2023-04-05T12:06:37.700Z,9.095
2023-04-05T12:07:38.351Z,9.091
2023-04-05T12:08:37.687Z,9.100
2023-04-05T12:09:38.109Z,9.154
2023-04-05T12:10:37.549Z,9.220
2023-04-05T12:11:37.733Z,9.213
2023-04-05T12:12:38.153Z,9.225
2023-04-05T12:13:37.708Z,9.239
2023-04-05T12:14:38.156Z,9.238
2023-04-05T12:15:37.936Z,9.238
2023-04-05T12:16:38.750Z,9.265
2023-04-05T12:17:38.794Z,9.289
2023-04-05T12:18:38.005Z,9.323
2023-04-05T12:19:37.080Z,9.314
2023-04-05T12:20:37.407Z,9.304
2023-04-05T12:21:37.937Z,9.315
2023-04-05T12:22:38.470Z,9.264
2023-04-05T12:23:38.003Z,9.310
2023-04-05T12:24:37.720Z,9.345
2023-04-05T12:25:38.497Z,9.359
2023-04-05T12:26:38.233Z,9.369
2023-04-05T12:27:38.096Z,9.404
2023-04-05T12:28:37.591Z,9.449
2023-04-05T12:29:38.284Z,9.496
2023-04-05T12:30:38.263Z,9.5
2023-04-05T12:31:37.806Z,9.468
2023-04-05T12:32:38.576Z,9.470
2023-04-05T12:33:38.552Z,9.473
2023-04-05T12:34:37.573Z,9.426
2023-04-05T12:35:38.292Z,9.423
2023-04-05T12:36:37.898Z,9.478
2023-04-05T12:37:38.348Z,9.586
2023-04-05T12:38:37.754Z,9.663
2023-04-05T12:39:38.861Z,9.680
2023-04-05T12:40:38.026Z,9.721
2023-04-05T12:41:38.125Z,9.685
2023-04-05T12:42:37.580Z,9.641
2023-04-05T12:43:38.064Z,9.598
2023-04-05T12:44:37.879Z,9.623
2023-04-05T12:45:38.995Z,9.596
2023-04-05T12:46:38.404Z,9.551
2023-04-05T12:47:38.150Z,9.423
2023-04-05T12:48:38.128Z,9.366
2023-04-05T12:49:38.354Z,9.373
2023-04-05T12:50:38.154Z,9.465
2023-04-05T12:51:38.731Z,9.518
2023-04-05T12:52:38.253Z,9.555
2023-04-05T12:53:37.327Z,9.626
2023-04-05T12:54:37.701Z,9.706